createdAt,value
2023-01-09T00:01:31.450Z,97821.09
2023-01-09T00:03:59.339Z,97801.69
2023-01-09T00:06:27.194Z,97796.81
2023-01-09T00:08:55.085Z,97786.00
2023-01-09T00:11:22.952Z,97774.47
2023-01-09T00:13:50.722Z,97775.00
2023-01-09T00:16:18.876Z,97776.34
2023-01-09T00:18:46.745Z,97778.16
2023-01-09T00:21:32.999Z,97778.31
2023-01-09T00:24:00.803Z,97791.34
2023-01-09T00:26:28.539Z,97783.88
2023-01-09T00:28:58.531Z,97787.19
2023-01-09T00:31:27.550Z,97790.50
2023-01-09T00:34:03.464Z,97792.31
2023-01-09T00:36:31.392Z,97777.13
2023-01-09T00:38:59.149Z,97781.84
2023-01-09T00:41:32.307Z,97775.75
2023-01-09T00:44:03.835Z,97755.56
2023-01-09T00:46:33.803Z,97773.13
2023-01-09T00:49:02.251Z,97787.38
2023-01-09T00:51:30.216Z,97777.63
2023-01-09T00:53:58.725Z,97764.66
2023-01-09T00:56:26.565Z,97754.88
2023-01-09T00:58:54.475Z,97761.53
2023-01-09T01:01:22.376Z,97768.34
2023-01-09T01:03:50.208Z,97765.22
2023-01-09T01:06:36.205Z,97749.38
2023-01-09T01:09:04.882Z,97752.09
2023-01-09T01:11:33.448Z,97741.63
2023-01-09T01:14:01.598Z,97743.47
2023-01-09T01:16:29.479Z,97751.22
2023-01-09T01:18:57.498Z,97746.09
2023-01-09T01:21:25.380Z,97760.06
2023-01-09T01:23:53.248Z,97770.31
2023-01-09T01:26:21.096Z,97778.75
2023-01-09T01:28:48.826Z,97763.53
2023-01-09T01:31:18.171Z,97757.44
2023-01-09T01:33:46.210Z,97745.16
2023-01-09T01:36:16.619Z,97758.25
2023-01-09T01:38:44.549Z,97759.09
2023-01-09T01:41:12.549Z,97788.81
2023-01-09T01:43:53.567Z,97791.56
2023-01-09T01:46:21.624Z,97789.50
2023-01-09T01:48:51.111Z,97801.38
2023-01-09T01:51:37.169Z,97826.97
2023-01-09T01:54:09.678Z,97813.72
2023-01-09T01:56:41.340Z,97800.31
2023-01-09T01:59:50.730Z,97808.59
2023-01-09T02:02:20.731Z,97807.06
2023-01-09T02:04:48.801Z,97814.81
2023-01-09T02:07:16.569Z,97830.56
2023-01-09T02:09:47.156Z,97829.88
2023-01-09T02:12:26.348Z,97816.59
2023-01-09T02:14:59.750Z,97813.28
2023-01-09T02:17:38.157Z,97812.88
2023-01-09T02:20:32.803Z,97814.13
2023-01-09T02:23:40.979Z,97817.28
2023-01-09T02:26:11.782Z,97817.31
2023-01-09T02:29:16.532Z,97830.56
2023-01-09T02:32:05.970Z,97851.81
2023-01-09T02:34:45.784Z,97867.09
2023-01-09T02:37:22.566Z,97866.72
2023-01-09T02:40:28.787Z,97900.66
2023-01-09T02:42:57.114Z,97905.53
2023-01-09T02:45:25.152Z,97912.84
2023-01-09T02:47:52.972Z,97912.25
2023-01-09T02:50:44.414Z,97923.69
2023-01-09T02:53:12.147Z,97934.88
2023-01-09T02:55:56.113Z,97933.88
2023-01-09T02:58:42.331Z,97913.19
2023-01-09T03:01:12.982Z,97940.91
2023-01-09T03:03:54.530Z,97920.66
2023-01-09T03:06:35.124Z,97898.94
2023-01-09T03:09:28.120Z,97916.44
2023-01-09T03:12:18.626Z,97891.47
2023-01-09T03:14:51.306Z,97885.09
2023-01-09T03:17:46.470Z,97894.22
2023-01-09T03:20:15.887Z,97885.75
2023-01-09T03:23:09.988Z,97880.44
2023-01-09T03:25:37.946Z,97888.66
2023-01-09T03:28:07.928Z,97882.84
2023-01-09T03:30:36.721Z,97875.41
2023-01-09T03:33:04.772Z,97871.88
2023-01-09T03:35:32.726Z,97849.75
2023-01-09T03:38:00.639Z,97865.22
2023-01-09T03:40:28.310Z,97855.66
2023-01-09T03:42:56.084Z,97862.50
2023-01-09T03:45:23.960Z,97874.50
2023-01-09T03:47:53.023Z,97861.00
2023-01-09T03:50:21.082Z,97862.41
2023-01-09T03:52:48.831Z,97862.44
2023-01-09T03:55:16.509Z,97844.47
2023-01-09T03:57:44.306Z,97851.22
2023-01-09T04:00:12.806Z,97855.69
2023-01-09T04:02:59.487Z,97855.06
2023-01-09T04:05:27.359Z,97863.47
2023-01-09T04:08:13.932Z,97855.06
2023-01-09T04:10:44.412Z,97845.63
2023-01-09T04:13:12.822Z,97861.50
2023-01-09T04:15:40.842Z,97861.31
2023-01-09T04:18:09.219Z,97861.63
2023-01-09T04:20:36.911Z,97878.13
2023-01-09T04:23:04.779Z,97866.88
2023-01-09T04:25:32.507Z,97862.53
2023-01-09T04:28:00.328Z,97878.25
2023-01-09T04:30:28.002Z,97882.03
2023-01-09T04:32:56.137Z,97887.16
2023-01-09T04:35:24.055Z,97883.19
2023-01-09T04:38:10.450Z,97881.09
2023-01-09T04:40:38.188Z,97880.06
2023-01-09T04:43:05.912Z,97895.91
2023-01-09T04:45:33.717Z,97884.69
2023-01-09T04:48:01.359Z,97888.47
2023-01-09T04:50:31.277Z,97882.69
2023-01-09T04:52:59.232Z,97875.44
2023-01-09T04:55:27.143Z,97888.53
2023-01-09T04:57:54.999Z,97890.69
2023-01-09T05:00:22.869Z,97872.53
2023-01-09T05:02:50.494Z,97868.59
2023-01-09T05:05:18.218Z,97883.34
2023-01-09T05:07:45.897Z,97895.91
2023-01-09T05:10:13.759Z,97905.03
2023-01-09T05:12:41.578Z,97905.19
2023-01-09T05:15:09.786Z,97910.97
2023-01-09T05:17:37.579Z,97899.72
2023-01-09T05:20:05.861Z,97890.91
2023-01-09T05:22:33.845Z,97903.81
2023-01-09T05:25:01.960Z,97909.25
2023-01-09T05:27:31.424Z,97897.47
2023-01-09T05:29:59.571Z,97899.91
2023-01-09T05:32:27.348Z,97901.53
2023-01-09T05:34:55.068Z,97904.03
2023-01-09T05:37:22.724Z,97914.16
2023-01-09T05:39:50.491Z,97909.66
2023-01-09T05:42:18.243Z,97917.56
2023-01-09T05:44:45.929Z,97900.59
2023-01-09T05:47:13.789Z,97924.56
2023-01-09T05:49:41.779Z,97927.84
2023-01-09T05:52:09.682Z,97933.69
2023-01-09T05:54:37.506Z,97952.56
2023-01-09T05:57:05.352Z,97956.38
2023-01-09T05:59:33.044Z,97943.78
2023-01-09T06:02:00.946Z,97954.03
2023-01-09T06:04:30.304Z,97962.97
2023-01-09T06:06:58.043Z,97934.06
2023-01-09T06:09:25.891Z,97932.63
2023-01-09T06:11:55.287Z,97933.44
2023-01-09T06:14:23.147Z,97945.44
2023-01-09T06:16:50.704Z,97955.22
2023-01-09T06:19:37.139Z,97947.91
2023-01-09T06:22:04.885Z,97936.56
2023-01-09T06:24:32.516Z,97945.69
2023-01-09T06:27:00.438Z,97955.59
2023-01-09T06:29:28.054Z,97964.38
2023-01-09T06:31:55.784Z,97968.50
2023-01-09T06:34:23.705Z,97975.78
2023-01-09T06:36:51.384Z,97971.03
2023-01-09T06:39:37.710Z,97968.63
2023-01-09T06:42:05.590Z,97978.03
2023-01-09T06:44:37.080Z,97978.78
2023-01-09T06:47:05.171Z,97986.63
2023-01-09T06:49:33.015Z,97972.06
2023-01-09T06:52:05.914Z,97973.28
2023-01-09T06:54:34.244Z,97999.25
2023-01-09T06:57:02.001Z,98014.59
2023-01-09T06:59:29.914Z,98017.72
2023-01-09T07:01:57.758Z,98037.25
2023-01-09T07:04:25.663Z,98065.50
2023-01-09T07:06:53.434Z,98066.06
2023-01-09T07:09:39.799Z,98069.19
2023-01-09T07:12:07.728Z,98070.31
2023-01-09T07:14:35.611Z,98059.94
2023-01-09T07:17:04.111Z,98060.84
2023-01-09T07:19:32.071Z,98078.66
2023-01-09T07:22:00.292Z,98068.59
2023-01-09T07:24:28.312Z,98073.34
2023-01-09T07:26:56.159Z,98096.03
2023-01-09T07:29:42.402Z,98086.00
2023-01-09T07:32:10.396Z,98089.22
2023-01-09T07:34:38.081Z,98100.22
2023-01-09T07:37:05.866Z,98118.53
2023-01-09T07:39:33.779Z,98118.16
2023-01-09T07:42:01.418Z,98105.72
2023-01-09T07:44:29.179Z,98114.66
2023-01-09T07:46:57.743Z,98130.25
2023-01-09T07:49:26.838Z,98149.81
2023-01-09T07:51:55.512Z,98133.28
2023-01-09T07:54:23.297Z,98149.34
2023-01-09T07:56:51.027Z,98153.66
2023-01-09T07:59:18.816Z,98155.31
2023-01-09T08:01:46.659Z,98155.50
2023-01-09T08:04:33.557Z,98150.75
2023-01-09T08:07:03.670Z,98166.19
2023-01-09T08:09:31.547Z,98169.16
2023-01-09T08:11:59.343Z,98176.22
2023-01-09T08:14:27.170Z,98168.97
2023-01-09T08:16:54.778Z,98178.50
2023-01-09T08:19:41.987Z,98164.56
2023-01-09T08:22:10.097Z,98170.63
2023-01-09T08:24:37.930Z,98191.53
2023-01-09T08:27:05.792Z,98180.69
2023-01-09T08:29:52.484Z,98204.09
2023-01-09T08:32:20.212Z,98202.75
2023-01-09T08:34:48.038Z,98219.19
2023-01-09T08:37:15.919Z,98230.78
2023-01-09T08:39:43.553Z,98244.97
2023-01-09T08:42:29.550Z,98246.66
2023-01-09T08:45:15.533Z,98247.19
2023-01-09T08:47:43.348Z,98264.53
2023-01-09T08:50:11.477Z,98262.94
2023-01-09T08:52:39.272Z,98266.78
2023-01-09T08:55:07.332Z,98255.53
2023-01-09T08:57:35.184Z,98254.75
2023-01-09T09:00:03.110Z,98264.03
2023-01-09T09:02:31.020Z,98273.69
2023-01-09T09:05:17.494Z,98272.56
2023-01-09T09:07:47.716Z,98260.31
2023-01-09T09:10:17.202Z,98273.44
2023-01-09T09:12:45.234Z,98259.34
2023-01-09T09:15:31.867Z,98293.00
2023-01-09T09:18:04.426Z,98300.13
2023-01-09T09:20:33.749Z,98310.38
2023-01-09T09:23:01.445Z,98301.72
2023-01-09T09:25:29.416Z,98299.00
2023-01-09T09:27:57.455Z,98311.88
2023-01-09T09:30:25.495Z,98316.94
2023-01-09T09:32:53.185Z,98350.22
2023-01-09T09:35:23.968Z,98362.72
2023-01-09T09:37:59.159Z,98366.16
2023-01-09T09:40:42.350Z,98408.78
2023-01-09T09:43:28.293Z,98392.38
2023-01-09T09:46:46.962Z,98414.97
2023-01-09T09:49:53.259Z,98399.56
2023-01-09T09:52:36.607Z,98404.81
2023-01-09T09:55:12.065Z,98412.03
2023-01-09T09:57:39.990Z,98418.63
2023-01-09T10:00:08.555Z,98440.94
2023-01-09T10:02:50.894Z,98450.88
2023-01-09T10:05:31.680Z,98454.50
2023-01-09T10:08:15.413Z,98465.09
2023-01-09T10:10:47.745Z,98469.69
2023-01-09T10:13:37.316Z,98473.16
2023-01-09T10:16:09.534Z,98479.50
2023-01-09T10:18:55.847Z,98488.44
2023-01-09T10:21:23.674Z,98485.56
2023-01-09T10:24:04.912Z,98500.16
2023-01-09T10:26:48.825Z,98509.88
2023-01-09T10:29:45.061Z,98524.16
2023-01-09T10:32:28.522Z,98499.19
2023-01-09T10:35:20.820Z,98519.97
2023-01-09T10:37:49.122Z,98508.59
2023-01-09T10:40:21.031Z,98524.94
2023-01-09T10:43:08.462Z,98522.88
2023-01-09T10:45:55.425Z,98535.88
2023-01-09T10:48:30.383Z,98533.09
2023-01-09T10:50:58.280Z,98527.88
2023-01-09T10:53:40.250Z,98530.00
2023-01-09T10:56:22.109Z,98541.97
2023-01-09T10:58:50.925Z,98518.59
2023-01-09T11:01:35.268Z,98528.19
2023-01-09T11:04:03.246Z,98541.53
2023-01-09T11:06:37.445Z,98565.28
2023-01-09T11:09:05.418Z,98595.22
2023-01-09T11:11:35.846Z,98605.56
2023-01-09T11:14:36.044Z,98582.44
2023-01-09T11:17:04.564Z,98585.09
2023-01-09T11:19:33.779Z,98582.00
2023-01-09T11:22:16.742Z,98580.19
2023-01-09T11:24:44.627Z,98573.13
2023-01-09T11:27:25.445Z,98602.38
2023-01-09T11:30:17.719Z,98591.81
2023-01-09T11:32:45.667Z,98611.50
2023-01-09T11:35:35.065Z,98608.31
2023-01-09T11:38:14.949Z,98608.88
2023-01-09T11:40:51.159Z,98598.88
2023-01-09T11:43:33.270Z,98622.34
2023-01-09T11:46:09.097Z,98623.19
2023-01-09T11:48:57.288Z,98627.78
2023-01-09T11:51:27.088Z,98624.84
2023-01-09T11:54:17.143Z,98665.69
2023-01-09T11:57:03.697Z,98672.47
2023-01-09T11:59:31.672Z,98668.84
2023-01-09T12:02:17.896Z,98672.47
2023-01-09T12:04:53.995Z,98678.00
2023-01-09T12:07:24.695Z,98676.06
2023-01-09T12:10:41.436Z,98673.16
2023-01-09T12:13:41.113Z,98680.91
2023-01-09T12:16:20.998Z,98685.47
2023-01-09T12:19:30.131Z,98700.94
2023-01-09T12:22:16.209Z,98715.75
2023-01-09T12:25:10.059Z,98726.25
2023-01-09T12:27:44.314Z,98739.97
2023-01-09T12:30:27.300Z,98753.56
2023-01-09T12:33:13.378Z,98761.84
2023-01-09T12:35:57.638Z,98757.81
2023-01-09T12:38:43.954Z,98768.63
2023-01-09T12:41:45.703Z,98737.81
2023-01-09T12:44:34.907Z,98751.53
2023-01-09T12:47:23.014Z,98750.84
2023-01-09T12:50:10.543Z,98753.69
2023-01-09T12:52:50.199Z,98759.09
2023-01-09T12:55:27.871Z,98758.13
2023-01-09T12:57:56.666Z,98759.94
2023-01-09T13:00:27.537Z,98758.13
2023-01-09T13:03:12.948Z,98773.38
2023-01-09T13:05:47.532Z,98761.31
2023-01-09T13:08:35.298Z,98766.44
2023-01-09T13:11:23.773Z,98776.72
2023-01-09T13:14:29.013Z,98786.66
2023-01-09T13:16:57.276Z,98790.97
2023-01-09T13:19:32.901Z,98807.34
2023-01-09T13:22:00.737Z,98807.94
2023-01-09T13:24:56.824Z,98807.44
2023-01-09T13:27:25.518Z,98823.97
2023-01-09T13:29:59.562Z,98815.91
2023-01-09T13:32:49.146Z,98832.59
2023-01-09T13:35:35.246Z,98830.06
2023-01-09T13:38:03.236Z,98830.91
2023-01-09T13:40:33.313Z,98842.16
2023-01-09T13:43:06.529Z,98851.63
2023-01-09T13:45:37.967Z,98845.50
2023-01-09T13:48:12.390Z,98861.22
2023-01-09T13:50:40.312Z,98863.84
2023-01-09T13:53:45.484Z,98872.34
2023-01-09T13:56:15.033Z,98877.88
2023-01-09T13:58:55.039Z,98881.09
2023-01-09T14:01:35.865Z,98893.56
2023-01-09T14:04:22.272Z,98889.13
2023-01-09T14:07:17.131Z,98888.31
2023-01-09T14:09:55.062Z,98895.66
2023-01-09T14:12:23.022Z,98902.59
2023-01-09T14:14:52.013Z,98902.19
2023-01-09T14:17:34.399Z,98898.84
2023-01-09T14:20:07.355Z,98895.84
2023-01-09T14:22:45.597Z,98896.22
2023-01-09T14:25:26.123Z,98905.09
2023-01-09T14:28:03.761Z,98898.03
2023-01-09T14:30:35.580Z,98899.81
2023-01-09T14:33:19.157Z,98908.13
2023-01-09T14:35:51.660Z,98912.88
2023-01-09T14:38:29.856Z,98922.75
2023-01-09T14:41:01.726Z,98933.81
2023-01-09T14:44:08.889Z,98926.31
2023-01-09T14:46:38.677Z,98948.72
2023-01-09T14:49:19.308Z,98925.50
2023-01-09T14:51:47.028Z,98930.66
2023-01-09T14:54:28.880Z,98919.31
2023-01-09T14:56:56.876Z,98919.03
2023-01-09T14:59:24.678Z,98927.63
2023-01-09T15:01:55.667Z,98926.56
2023-01-09T15:04:41.338Z,98936.84
2023-01-09T15:07:20.395Z,98937.56
2023-01-09T15:09:48.093Z,98948.81
2023-01-09T15:12:22.952Z,98946.03
2023-01-09T15:14:56.427Z,98944.13
2023-01-09T15:17:43.791Z,98944.00
2023-01-09T15:20:37.531Z,98939.47
2023-01-09T15:23:05.818Z,98934.00
2023-01-09T15:25:39.571Z,98946.06
2023-01-09T15:28:32.571Z,98940.44
2023-01-09T15:31:26.585Z,98947.16
2023-01-09T15:33:54.425Z,98942.59
2023-01-09T15:36:26.762Z,98948.50
2023-01-09T15:38:54.565Z,98947.88
2023-01-09T15:41:48.040Z,98950.50
2023-01-09T15:44:36.798Z,98955.56
2023-01-09T15:47:06.096Z,98955.56
2023-01-09T15:49:34.352Z,98962.00
2023-01-09T15:52:02.229Z,98956.00
2023-01-09T15:54:31.188Z,98945.47
2023-01-09T15:57:25.079Z,98949.19
2023-01-09T15:59:56.807Z,98952.06
2023-01-09T16:02:43.255Z,98960.66
2023-01-09T16:05:18.066Z,98956.50
2023-01-09T16:07:46.688Z,98951.22
2023-01-09T16:10:25.635Z,98951.22
2023-01-09T16:12:55.030Z,98945.00
2023-01-09T16:15:22.611Z,98947.75
2023-01-09T16:18:06.510Z,98951.81
2023-01-09T16:20:34.301Z,98951.22
2023-01-09T16:23:03.451Z,98953.84
2023-01-09T16:25:34.803Z,98946.19
2023-01-09T16:28:21.552Z,98929.09
2023-01-09T16:31:24.247Z,98923.56
2023-01-09T16:34:06.926Z,98928.59
2023-01-09T16:36:35.413Z,98930.78
2023-01-09T16:39:04.493Z,98939.50
2023-01-09T16:41:50.449Z,98947.16
2023-01-09T16:44:19.598Z,98940.94
2023-01-09T16:46:47.349Z,98951.25
2023-01-09T16:49:23.776Z,98948.28
2023-01-09T16:51:51.804Z,98956.75
2023-01-09T16:54:20.047Z,98947.78
2023-01-09T16:56:49.598Z,98952.69
2023-01-09T16:59:21.155Z,98936.75
2023-01-09T17:01:48.995Z,98934.50
2023-01-09T17:04:17.729Z,98933.53
2023-01-09T17:06:45.577Z,98924.91
2023-01-09T17:09:15.100Z,98929.09
2023-01-09T17:11:42.922Z,98935.81
2023-01-09T17:14:14.597Z,98939.16
2023-01-09T17:16:51.416Z,98941.53
2023-01-09T17:19:20.329Z,98934.47
2023-01-09T17:21:48.289Z,98938.69
2023-01-09T17:24:34.147Z,98951.72
2023-01-09T17:27:20.445Z,98957.72
2023-01-09T17:29:48.577Z,98955.22
2023-01-09T17:32:17.212Z,98951.63
2023-01-09T17:34:45.091Z,98942.75
2023-01-09T17:37:16.666Z,98929.56
2023-01-09T17:39:44.955Z,98938.44
2023-01-09T17:42:12.740Z,98939.16
2023-01-09T17:44:40.500Z,98949.81
2023-01-09T17:47:13.534Z,98941.91
2023-01-09T17:49:42.144Z,98940.94
2023-01-09T17:52:09.896Z,98942.63
2023-01-09T17:54:37.644Z,98950.28
2023-01-09T17:57:05.479Z,98939.75
2023-01-09T17:59:33.204Z,98935.31
2023-01-09T18:02:00.986Z,98941.53
2023-01-09T18:04:28.780Z,98934.59
2023-01-09T18:06:56.624Z,98936.38
2023-01-09T18:09:24.136Z,98926.94
2023-01-09T18:11:51.907Z,98929.94
2023-01-09T18:14:19.930Z,98928.84
2023-01-09T18:16:47.851Z,98918.94
2023-01-09T18:19:15.539Z,98923.13
2023-01-09T18:21:43.325Z,98913.41
2023-01-09T18:24:11.010Z,98909.09
2023-01-09T18:26:38.829Z,98902.41
2023-01-09T18:29:06.648Z,98902.06
2023-01-09T18:31:34.254Z,98912.94
2023-01-09T18:34:05.804Z,98908.88
2023-01-09T18:36:34.249Z,98912.81
2023-01-09T18:39:02.921Z,98910.50
2023-01-09T18:41:30.920Z,98908.38
2023-01-09T18:43:59.652Z,98912.31
2023-01-09T18:46:31.196Z,98906.53
2023-01-09T18:49:00.627Z,98920.91
2023-01-09T18:51:28.556Z,98913.47
2023-01-09T18:53:56.394Z,98902.13
2023-01-09T18:56:25.175Z,98906.28
2023-01-09T18:58:57.571Z,98902.09
2023-01-09T19:01:26.222Z,98893.34
2023-01-09T19:03:53.979Z,98909.38
2023-01-09T19:06:21.662Z,98906.97
2023-01-09T19:08:49.611Z,98889.16
2023-01-09T19:11:17.402Z,98901.34
2023-01-09T19:13:45.372Z,98900.63
2023-01-09T19:16:13.117Z,98899.19
2023-01-09T19:18:41.936Z,98894.16
2023-01-09T19:21:22.861Z,98902.38
2023-01-09T19:23:50.716Z,98886.84
2023-01-09T19:26:24.045Z,98878.94
2023-01-09T19:28:55.546Z,98881.69
2023-01-09T19:31:24.824Z,98872.38
2023-01-09T19:33:53.167Z,98885.63
2023-01-09T19:36:21.874Z,98875.44
2023-01-09T19:38:49.728Z,98878.53
2023-01-09T19:41:19.718Z,98881.63
2023-01-09T19:43:47.966Z,98877.50
2023-01-09T19:46:20.683Z,98864.84
2023-01-09T19:48:48.215Z,98860.88
2023-01-09T19:51:16.988Z,98855.56
2023-01-09T19:53:44.821Z,98862.72
2023-01-09T19:56:16.341Z,98845.50
2023-01-09T19:58:48.199Z,98843.22
2023-01-09T20:01:25.063Z,98840.69
2023-01-09T20:03:53.588Z,98834.34
2023-01-09T20:06:24.526Z,98835.91
2023-01-09T20:08:54.604Z,98842.31
2023-01-09T20:11:22.819Z,98838.22
2023-01-09T20:13:50.681Z,98843.59
2023-01-09T20:16:20.741Z,98835.94
2023-01-09T20:18:48.602Z,98826.50
2023-01-09T20:23:50.816Z,98818.22
2023-01-09T20:26:18.834Z,98820.00
2023-01-09T20:28:46.972Z,98822.81
2023-01-09T20:31:16.707Z,98824.75
2023-01-09T20:33:44.798Z,98830.53
2023-01-09T20:36:12.526Z,98832.22
2023-01-09T20:38:41.004Z,98831.97
2023-01-09T20:41:26.278Z,98827.44
2023-01-09T20:43:55.975Z,98827.44
2023-01-09T20:46:25.383Z,98828.41
2023-01-09T20:48:55.123Z,98826.72
2023-01-09T20:51:22.969Z,98827.69
2023-01-09T20:53:57.111Z,98818.72
2023-01-09T20:56:28.713Z,98819.44
2023-01-09T20:58:57.218Z,98818.38
2023-01-09T21:01:25.006Z,98819.22
2023-01-09T21:03:53.508Z,98816.72
2023-01-09T21:06:22.256Z,98806.44
2023-01-09T21:08:51.371Z,98819.56
2023-01-09T21:11:19.833Z,98817.91
2023-01-09T21:13:47.683Z,98813.59
2023-01-09T21:16:17.793Z,98801.53
2023-01-09T21:18:45.542Z,98803.56
2023-01-09T21:21:18.809Z,98812.81
2023-01-09T21:23:47.375Z,98819.34
2023-01-09T21:26:15.410Z,98822.31
2023-01-09T21:28:46.236Z,98815.94
2023-01-09T21:31:14.332Z,98826.19
2023-01-09T21:33:42.015Z,98816.66
2023-01-09T21:36:10.156Z,98802.81
2023-01-09T21:38:38.096Z,98801.13
2023-01-09T21:41:24.681Z,98804.81
2023-01-09T21:44:10.753Z,98810.28
2023-01-09T21:46:53.454Z,98802.72
2023-01-09T21:49:21.370Z,98807.75
2023-01-09T21:51:49.118Z,98809.47
2023-01-09T21:54:16.849Z,98817.09
2023-01-09T21:56:44.582Z,98807.31
2023-01-09T21:59:12.579Z,98804.25
2023-01-09T22:01:40.334Z,98805.19
2023-01-09T22:04:08.090Z,98812.34
2023-01-09T22:06:36.273Z,98821.19
2023-01-09T22:09:04.195Z,98816.16
2023-01-09T22:11:31.975Z,98820.03
2023-01-09T22:14:00.757Z,98815.13
2023-01-09T22:16:28.600Z,98820.47
2023-01-09T22:18:56.800Z,98830.88
2023-01-09T22:21:24.932Z,98822.56
2023-01-09T22:23:52.618Z,98826.03
2023-01-09T22:26:20.797Z,98833.38
2023-01-09T22:28:48.784Z,98829.91
2023-01-09T22:31:18.533Z,98843.25
2023-01-09T22:33:53.118Z,98834.56
2023-01-09T22:36:20.920Z,98826.69
2023-01-09T22:38:48.697Z,98839.06
2023-01-09T22:41:16.376Z,98839.50
2023-01-09T22:43:44.115Z,98842.66
2023-01-09T22:46:11.983Z,98832.16
2023-01-09T22:48:40.379Z,98836.69
2023-01-09T22:51:12.113Z,98839.31
2023-01-09T22:53:39.727Z,98834.06
2023-01-09T22:56:08.841Z,98835.13
2023-01-09T22:58:36.724Z,98821.91
2023-01-09T23:01:04.636Z,98823.78
2023-01-09T23:03:32.299Z,98830.59
2023-01-09T23:06:10.979Z,98824.19
2023-01-09T23:08:38.770Z,98826.69
2023-01-09T23:11:08.423Z,98833.72
2023-01-09T23:13:36.140Z,98831.00
2023-01-09T23:16:04.380Z,98825.53
2023-01-09T23:18:32.173Z,98829.63
2023-01-09T23:21:02.235Z,98828.81
2023-01-09T23:23:30.710Z,98826.91
2023-01-09T23:26:00.253Z,98826.91
2023-01-09T23:28:28.154Z,98822.59
2023-01-09T23:30:55.823Z,98826.69
2023-01-09T23:33:23.503Z,98815.13
2023-01-09T23:35:51.250Z,98820.38
2023-01-09T23:38:19.041Z,98823.72
2023-01-09T23:40:46.769Z,98820.88
2023-01-09T23:43:15.144Z,98812.09
2023-01-09T23:45:44.020Z,98823.31
2023-01-09T23:48:13.422Z,98825.94
2023-01-09T23:50:53.937Z,98825.09
2023-01-09T23:53:22.515Z,98813.75
2023-01-09T23:55:52.508Z,98810.38
2023-01-09T23:58:20.173Z,98813.88
